createdAt,value
2023-05-08T00:01:57.493Z,6.60
2023-05-08T00:04:30.989Z,7.45
2023-05-08T00:07:04.403Z,6.90
2023-05-08T00:09:39.050Z,6.87
2023-05-08T00:12:12.273Z,7.75
2023-05-08T00:14:45.683Z,6.20
2023-05-08T00:17:19.268Z,7.60
2023-05-08T00:19:53.303Z,6.50
2023-05-08T00:22:26.855Z,6.47
2023-05-08T00:25:00.205Z,6.80
2023-05-08T00:27:34.757Z,7.05
2023-05-08T00:30:10.816Z,7.50
2023-05-08T00:32:47.257Z,6.33
2023-05-08T00:35:21.073Z,7.40
2023-05-08T00:37:54.672Z,6.87
2023-05-08T00:40:28.632Z,8.15
2023-05-08T00:43:01.970Z,6.97
2023-05-08T00:45:39.043Z,6.87
2023-05-08T00:48:12.284Z,7.07
2023-05-08T00:50:47.141Z,7.70
2023-05-08T00:53:22.155Z,7.78
2023-05-08T00:55:56.016Z,7.45
2023-05-08T00:58:31.550Z,7.65
2023-05-08T01:01:07.118Z,7.75
2023-05-08T01:03:41.423Z,7.28
2023-05-08T01:06:14.753Z,7.65
2023-05-08T01:08:50.125Z,8.23
2023-05-08T01:11:27.538Z,7.53
2023-05-08T01:14:06.060Z,8.40
2023-05-08T01:16:43.691Z,7.97
2023-05-08T01:19:27.378Z,7.83
2023-05-08T01:22:04.262Z,7.78
2023-05-08T01:24:52.622Z,8.10
2023-05-08T01:28:05.830Z,8.10
2023-05-08T01:30:50.923Z,7.35
2023-05-08T01:33:29.516Z,7.75
2023-05-08T01:36:07.554Z,6.65
2023-05-08T01:38:44.069Z,7.45
2023-05-08T01:41:21.378Z,7.15
2023-05-08T01:43:57.823Z,8.20
2023-05-08T01:46:32.680Z,7.58
2023-05-08T01:49:10.349Z,7.55
2023-05-08T01:51:47.359Z,7.80
2023-05-08T01:57:05.945Z,6.83
2023-05-08T01:59:40.377Z,6.85
2023-05-08T02:02:17.227Z,7.80
2023-05-08T02:04:50.878Z,8.55
2023-05-08T02:07:25.935Z,8.13
2023-05-08T02:10:00.762Z,8.05
2023-05-08T02:12:35.782Z,8.20
2023-05-08T02:15:13.031Z,8.18
2023-05-08T02:17:48.300Z,7.53
2023-05-08T02:20:22.992Z,8.03
2023-05-08T02:22:55.908Z,7.53
2023-05-08T02:25:31.711Z,8.58
2023-05-08T02:28:06.982Z,8.20
2023-05-08T02:30:41.065Z,8.50
2023-05-08T02:33:16.269Z,7.37
2023-05-08T02:35:51.689Z,7.92
2023-05-08T02:38:27.014Z,7.80
2023-05-08T02:41:03.585Z,6.95
2023-05-08T02:43:37.047Z,9.38
2023-05-08T02:46:14.962Z,8.20
2023-05-08T02:48:51.639Z,10.18
2023-05-08T02:51:28.243Z,10.03
2023-05-08T02:54:06.561Z,8.53
2023-05-08T02:56:42.726Z,8.53
2023-05-08T02:59:21.699Z,7.50
2023-05-08T03:01:58.645Z,7.55
2023-05-08T03:07:15.773Z,8.03
2023-05-08T03:09:51.961Z,7.08
2023-05-08T03:12:28.157Z,9.20
2023-05-08T03:15:05.935Z,9.05
2023-05-08T03:17:43.800Z,8.70
2023-05-08T03:20:19.340Z,8.10
2023-05-08T03:22:54.802Z,8.40
2023-05-08T03:25:29.999Z,7.67
2023-05-08T03:28:05.371Z,9.20
2023-05-08T03:30:41.295Z,7.62
2023-05-08T03:33:18.788Z,8.25
2023-05-08T03:35:53.784Z,7.17
2023-05-08T03:38:27.187Z,6.95
2023-05-08T03:41:02.205Z,7.20
2023-05-08T03:43:37.115Z,8.63
2023-05-08T03:46:11.225Z,7.45
2023-05-08T03:48:45.806Z,7.30
2023-05-08T03:51:19.160Z,7.58
2023-05-08T03:53:52.259Z,5.95
2023-05-08T03:56:26.208Z,5.37
2023-05-08T03:59:04.126Z,6.37
2023-05-08T04:01:41.399Z,6.60
2023-05-08T04:04:19.354Z,7.17
2023-05-08T04:06:57.125Z,6.45
2023-05-08T04:09:35.162Z,6.00
2023-05-08T04:12:12.219Z,5.35
2023-05-08T04:14:49.417Z,5.58
2023-05-08T04:17:27.107Z,5.17
2023-05-08T04:20:04.893Z,4.65
2023-05-08T04:22:40.248Z,4.12
2023-05-08T04:25:16.623Z,5.30
2023-05-08T04:27:51.932Z,4.30
2023-05-08T04:30:26.064Z,4.80
2023-05-08T04:33:00.522Z,5.78
2023-05-08T04:35:34.733Z,4.35
2023-05-08T04:38:08.393Z,4.10
2023-05-08T04:40:41.407Z,3.47
2023-05-08T04:43:15.824Z,4.03
2023-05-08T04:45:48.885Z,4.10
2023-05-08T04:48:21.880Z,2.50
2023-05-08T04:50:54.996Z,2.72
2023-05-08T04:53:28.431Z,3.00
2023-05-08T04:56:01.752Z,2.27
2023-05-08T04:58:34.856Z,2.33
2023-05-08T05:01:08.354Z,2.40
2023-05-08T05:03:41.333Z,3.10
2023-05-08T05:06:14.678Z,2.15
2023-05-08T05:08:51.076Z,2.05
2023-05-08T05:11:24.237Z,1.62
2023-05-08T05:13:57.894Z,2.10
2023-05-08T05:16:30.964Z,1.82
2023-05-08T05:19:04.896Z,2.08
2023-05-08T05:21:38.897Z,1.90
2023-05-08T05:24:12.202Z,1.60
2023-05-08T05:26:45.995Z,2.10
2023-05-08T05:29:19.236Z,1.15
2023-05-08T05:31:52.419Z,1.80
2023-05-08T05:34:25.666Z,1.60
2023-05-08T05:36:58.843Z,1.05
2023-05-08T05:39:41.650Z,1.60
2023-05-08T05:42:18.138Z,1.20
2023-05-08T05:44:51.128Z,1.30
2023-05-08T05:47:24.115Z,1.50
2023-05-08T05:49:57.204Z,0.93
2023-05-08T05:52:34.609Z,1.50
2023-05-08T05:55:09.416Z,1.10
2023-05-08T05:57:42.637Z,1.50
2023-05-08T06:00:17.538Z,1.30
2023-05-08T06:02:55.635Z,1.50
2023-05-08T06:05:28.791Z,1.55
2023-05-08T06:08:03.368Z,1.10
2023-05-08T06:10:36.665Z,2.08
2023-05-08T06:13:10.120Z,1.20
2023-05-08T06:15:43.276Z,1.10
2023-05-08T06:18:16.719Z,1.07
2023-05-08T06:20:49.707Z,1.15
2023-05-08T06:23:22.763Z,0.95
2023-05-08T06:25:55.926Z,0.90
2023-05-08T06:28:28.942Z,0.60
2023-05-08T06:31:03.751Z,1.10
2023-05-08T06:33:38.813Z,1.00
2023-05-08T06:36:13.287Z,1.35
2023-05-08T06:38:46.278Z,0.93
2023-05-08T06:41:21.995Z,1.17
2023-05-08T06:44:01.317Z,0.90
2023-05-08T06:46:34.482Z,0.82
2023-05-08T06:49:07.463Z,0.80
2023-05-08T06:51:40.430Z,1.05
2023-05-08T06:54:13.453Z,1.10
2023-05-08T06:56:46.483Z,0.88
2023-05-08T06:59:19.929Z,0.62
2023-05-08T07:01:53.097Z,0.80
2023-05-08T07:04:26.859Z,0.40
2023-05-08T07:07:00.562Z,0.60
2023-05-08T07:09:34.868Z,0.60
2023-05-08T07:12:09.607Z,0.70
2023-05-08T07:14:42.716Z,0.50
2023-05-08T07:17:16.281Z,0.60
2023-05-08T07:19:52.740Z,0.62
2023-05-08T07:22:25.892Z,0.53
2023-05-08T07:24:58.983Z,0.70
2023-05-08T07:27:33.160Z,0.40
2023-05-08T07:30:07.473Z,0.50
2023-05-08T07:32:40.559Z,0.20
2023-05-08T07:35:13.876Z,0.53
2023-05-08T07:37:50.176Z,0.82
2023-05-08T07:40:23.630Z,0.57
2023-05-08T07:42:57.064Z,0.50
2023-05-08T07:45:30.514Z,0.80
2023-05-08T07:48:10.129Z,0.40
2023-05-08T07:50:45.677Z,0.72
2023-05-08T07:53:28.508Z,0.55
2023-05-08T07:56:01.593Z,0.30
2023-05-08T07:58:36.600Z,0.53
2023-05-08T08:01:13.232Z,0.50
2023-05-08T08:03:46.865Z,0.50
2023-05-08T08:06:20.475Z,0.62
2023-05-08T08:08:53.765Z,0.53
2023-05-08T08:11:27.662Z,0.55
2023-05-08T08:14:03.795Z,0.50
2023-05-08T08:16:39.505Z,0.50
2023-05-08T08:19:12.913Z,0.60
2023-05-08T08:21:47.244Z,0.75
2023-05-08T08:24:20.725Z,0.68
2023-05-08T08:26:54.030Z,0.65
2023-05-08T08:29:27.269Z,0.62
2023-05-08T08:32:00.739Z,0.72
2023-05-08T08:34:35.632Z,0.68
2023-05-08T08:37:08.964Z,0.98
2023-05-08T08:39:42.153Z,1.12
2023-05-08T08:42:16.861Z,1.00
2023-05-08T08:44:50.227Z,1.20
2023-05-08T08:47:26.671Z,1.67
2023-05-08T08:50:03.233Z,1.60
2023-05-08T08:52:43.152Z,1.37
2023-05-08T08:55:19.501Z,1.37
2023-05-08T09:00:39.888Z,1.60
2023-05-08T09:03:13.835Z,1.10
2023-05-08T09:05:49.028Z,0.95
2023-05-08T09:08:22.467Z,0.90
2023-05-08T09:10:57.247Z,1.00
2023-05-08T09:13:31.628Z,1.17
2023-05-08T09:16:05.476Z,0.80
2023-05-08T09:18:39.052Z,0.90
2023-05-08T09:21:12.614Z,1.25
2023-05-08T09:24:02.625Z,1.00
2023-05-08T09:26:37.687Z,1.20
2023-05-08T09:29:19.020Z,0.98
2023-05-08T09:31:53.367Z,1.32
2023-05-08T09:34:28.740Z,1.00
2023-05-08T09:37:21.184Z,0.90
2023-05-08T09:40:03.951Z,0.70
2023-05-08T09:42:41.529Z,0.50
2023-05-08T09:45:17.889Z,0.65
2023-05-08T09:47:53.084Z,0.57
2023-05-08T09:50:29.276Z,0.90
2023-05-08T09:53:02.687Z,0.70
2023-05-08T09:55:50.899Z,0.95
2023-05-08T09:58:25.169Z,1.15
2023-05-08T10:01:02.555Z,0.70
2023-05-08T10:03:51.623Z,1.32
2023-05-08T10:06:25.259Z,0.80
2023-05-08T10:09:15.272Z,1.15
2023-05-08T10:11:54.714Z,1.17
2023-05-08T10:14:28.108Z,1.00
2023-05-08T10:17:04.067Z,0.98
2023-05-08T10:19:41.581Z,1.10
2023-05-08T10:23:07.312Z,1.20
2023-05-08T10:28:31.071Z,1.67
2023-05-08T10:31:07.423Z,1.10
2023-05-08T10:33:42.665Z,1.40
2023-05-08T10:36:16.788Z,1.27
2023-05-08T10:38:51.340Z,2.42
2023-05-08T10:41:24.528Z,0.82
2023-05-08T10:44:03.180Z,1.40
2023-05-08T10:46:41.176Z,1.20
2023-05-08T10:49:20.324Z,1.05
2023-05-08T10:52:01.465Z,1.45
2023-05-08T10:54:38.189Z,1.27
2023-05-08T10:57:13.072Z,1.40
2023-05-08T10:59:48.820Z,1.27
2023-05-08T11:02:30.035Z,2.35
2023-05-08T11:05:18.127Z,4.55
2023-05-08T11:07:59.199Z,1.05
2023-05-08T11:10:35.740Z,1.22
2023-05-08T11:13:10.184Z,0.90
2023-05-08T11:15:45.785Z,0.93
2023-05-08T11:18:19.662Z,1.12
2023-05-08T11:21:00.137Z,1.50
2023-05-08T11:23:35.238Z,1.32
2023-05-08T11:26:10.370Z,1.10
2023-05-08T11:28:48.437Z,1.40
2023-05-08T11:31:22.982Z,1.42
2023-05-08T11:33:56.172Z,1.37
2023-05-08T11:36:29.550Z,1.05
2023-05-08T11:39:11.814Z,1.15
2023-05-08T11:41:44.858Z,0.90
2023-05-08T11:44:24.276Z,1.20
2023-05-08T11:46:59.080Z,1.10
2023-05-08T11:49:32.342Z,1.37
2023-05-08T11:52:06.979Z,1.30
2023-05-08T11:54:40.243Z,1.32
2023-05-08T11:57:14.777Z,0.98
2023-05-08T11:59:52.281Z,1.22
2023-05-08T12:05:28.922Z,1.20
2023-05-08T12:08:07.045Z,1.22
2023-05-08T12:10:52.587Z,1.60
2023-05-08T12:13:29.803Z,1.60
2023-05-08T12:16:04.407Z,1.42
2023-05-08T12:18:39.241Z,1.70
2023-05-08T12:21:13.352Z,1.85
2023-05-08T12:23:46.920Z,1.35
2023-05-08T12:26:20.883Z,1.45
2023-05-08T12:28:59.440Z,1.82
2023-05-08T12:31:36.282Z,1.55
2023-05-08T12:34:10.156Z,2.62
2023-05-08T12:36:45.501Z,2.25
2023-05-08T12:39:19.992Z,1.40
2023-05-08T12:41:54.315Z,2.90
2023-05-08T12:44:28.453Z,1.25
2023-05-08T12:47:06.633Z,1.77
2023-05-08T12:49:41.583Z,1.30
2023-05-08T12:52:18.189Z,1.27
2023-05-08T12:54:51.938Z,1.15
2023-05-08T12:57:25.627Z,3.17
2023-05-08T13:00:05.435Z,1.40
2023-05-08T13:02:47.419Z,1.17
2023-05-08T13:05:13.836Z,1.32
2023-05-08T13:07:47.314Z,1.17
2023-05-08T13:10:24.458Z,1.20
2023-05-08T13:12:56.480Z,2.00
2023-05-08T13:15:30.165Z,1.40
2023-05-08T13:18:03.756Z,1.50
2023-05-08T13:20:37.457Z,1.72
2023-05-08T13:23:12.791Z,1.42
2023-05-08T13:25:46.208Z,1.42
2023-05-08T13:28:20.011Z,1.47
2023-05-08T13:30:53.745Z,1.65
2023-05-08T13:33:32.791Z,1.65
2023-05-08T13:36:07.740Z,1.32
2023-05-08T13:38:41.822Z,1.37
2023-05-08T13:41:18.067Z,1.20
2023-05-08T13:43:51.948Z,1.37
2023-05-08T13:46:26.746Z,1.12
2023-05-08T13:49:00.557Z,1.42
2023-05-08T13:51:34.366Z,1.70
2023-05-08T13:54:08.131Z,1.30
2023-05-08T13:59:27.538Z,1.20
2023-05-08T14:02:02.886Z,1.02
2023-05-08T14:04:36.433Z,1.50
2023-05-08T14:07:09.761Z,1.20
2023-05-08T14:09:43.354Z,1.40
2023-05-08T14:19:04.098Z,1.50
2023-05-08T14:21:43.937Z,1.00
2023-05-08T14:24:19.398Z,1.20
2023-05-08T14:26:52.792Z,1.10
2023-05-08T14:29:27.174Z,1.25
2023-05-08T14:32:00.500Z,0.90
2023-05-08T14:34:33.637Z,1.10
2023-05-08T14:37:06.663Z,1.40
2023-05-08T14:39:42.128Z,1.75
2023-05-08T14:42:22.860Z,1.80
2023-05-08T14:44:53.891Z,1.27
2023-05-08T14:47:27.395Z,1.40
2023-05-08T14:50:16.296Z,1.30
2023-05-08T14:52:55.215Z,1.47
2023-05-08T14:55:29.048Z,1.47
2023-05-08T14:58:02.286Z,1.80
2023-05-08T15:00:35.553Z,2.22
2023-05-08T15:03:08.965Z,2.00
2023-05-08T15:09:36.825Z,1.50
2023-05-08T15:12:10.997Z,1.72
2023-05-08T15:14:44.027Z,2.17
2023-05-08T15:17:17.048Z,1.87
2023-05-08T15:19:50.306Z,1.50
2023-05-08T15:22:26.406Z,1.70
2023-05-08T15:25:00.899Z,1.90
2023-05-08T15:27:34.825Z,2.10
2023-05-08T15:30:10.366Z,1.50
2023-05-08T15:32:46.321Z,1.50
2023-05-08T15:35:19.831Z,1.47
2023-05-08T15:37:52.835Z,1.30
2023-05-08T15:40:25.936Z,6.25
2023-05-08T15:42:59.754Z,2.83
2023-05-08T15:45:35.789Z,2.33
2023-05-08T15:48:10.466Z,1.40
2023-05-08T15:50:46.343Z,1.55
2023-05-08T15:53:19.249Z,2.02
2023-05-08T15:55:52.246Z,2.52
2023-05-08T15:58:25.723Z,2.10
2023-05-08T16:00:58.773Z,2.65
2023-05-08T16:03:31.774Z,1.67
2023-05-08T16:06:08.440Z,1.70
2023-05-08T16:08:41.481Z,3.00
2023-05-08T16:11:14.573Z,1.67
2023-05-08T16:13:47.844Z,1.45
2023-05-08T16:16:21.082Z,1.57
2023-05-08T16:18:54.078Z,1.82
2023-05-08T16:21:27.330Z,2.25
2023-05-08T16:24:00.616Z,1.95
2023-05-08T16:26:33.941Z,6.55
2023-05-08T16:29:07.068Z,1.72
2023-05-08T16:31:40.165Z,2.47
2023-05-08T16:34:13.382Z,4.92
2023-05-08T16:36:49.286Z,4.90
2023-05-08T16:39:22.939Z,2.17
2023-05-08T16:41:56.306Z,2.80
2023-05-08T16:44:29.689Z,2.10
2023-05-08T16:47:03.416Z,2.55
2023-05-08T16:49:48.391Z,2.77
2023-05-08T16:52:21.939Z,3.80
2023-05-08T16:54:55.426Z,2.65
2023-05-08T16:57:30.947Z,2.55
2023-05-08T17:00:08.024Z,2.33
2023-05-08T17:02:47.300Z,2.57
2023-05-08T17:05:24.229Z,2.72
2023-05-08T17:07:57.488Z,3.20
2023-05-08T17:10:32.720Z,3.10
2023-05-08T17:13:07.703Z,4.20
2023-05-08T17:15:41.223Z,5.22
2023-05-08T17:18:15.582Z,8.05
2023-05-08T17:20:51.829Z,8.93
2023-05-08T17:23:28.172Z,5.10
2023-05-08T17:26:02.480Z,3.77
2023-05-08T17:28:38.569Z,4.17
2023-05-08T17:31:13.261Z,3.45
2023-05-08T17:33:48.163Z,4.15
2023-05-08T17:39:13.954Z,3.10
2023-05-08T17:41:48.666Z,4.00
2023-05-08T17:44:22.579Z,3.10
2023-05-08T17:46:55.748Z,3.17
2023-05-08T17:49:30.132Z,4.42
2023-05-08T17:52:06.254Z,3.92
2023-05-08T17:54:45.175Z,5.00
2023-05-08T17:57:20.779Z,3.50
2023-05-08T17:59:58.793Z,4.40
2023-05-08T18:02:35.652Z,4.50
2023-05-08T18:05:14.163Z,4.55
2023-05-08T18:07:49.257Z,5.37
2023-05-08T18:10:25.008Z,3.72
2023-05-08T18:12:58.837Z,4.53
2023-05-08T18:15:32.337Z,4.78
2023-05-08T18:18:06.698Z,4.65
2023-05-08T18:20:41.477Z,5.97
2023-05-08T18:23:15.630Z,3.72
2023-05-08T18:25:51.357Z,4.97
2023-05-08T18:28:28.526Z,4.00
2023-05-08T18:31:03.116Z,4.37
2023-05-08T18:33:38.585Z,4.67
2023-05-08T18:42:26.049Z,5.17
2023-05-08T18:45:00.415Z,5.90
2023-05-08T18:47:37.435Z,4.80
2023-05-08T19:06:27.689Z,4.47
2023-05-08T19:24:18.159Z,5.92
2023-05-08T19:26:54.585Z,6.33
2023-05-08T19:29:34.161Z,7.17
2023-05-08T19:32:11.015Z,7.50
2023-05-08T19:34:47.306Z,7.87
2023-05-08T19:39:54.916Z,7.75
2023-05-08T19:42:28.282Z,6.47
2023-05-08T19:45:01.566Z,7.10
2023-05-08T19:47:35.167Z,6.92
2023-05-08T19:50:14.593Z,6.78
2023-05-08T19:52:48.859Z,6.90
2023-05-08T19:55:22.102Z,7.30
2023-05-08T19:57:55.117Z,7.70
2023-05-08T20:00:28.785Z,7.50
2023-05-08T20:05:43.524Z,8.45
2023-05-08T20:08:17.565Z,8.53
2023-05-08T20:10:53.778Z,7.60
2023-05-08T20:13:29.627Z,6.92
2023-05-08T20:16:03.435Z,7.40
2023-05-08T20:18:37.603Z,8.10
2023-05-08T20:21:10.903Z,9.23
2023-05-08T20:23:44.102Z,8.03
2023-05-08T20:26:20.053Z,7.50
2023-05-08T20:28:53.431Z,8.73
2023-05-08T20:31:27.937Z,7.10
2023-05-08T20:34:01.520Z,6.90
2023-05-08T20:36:38.431Z,7.37
2023-05-08T20:39:09.582Z,7.72
2023-05-08T20:41:42.703Z,6.80
2023-05-08T20:44:18.188Z,6.65
2023-05-08T20:46:53.921Z,5.62
2023-05-08T20:49:27.085Z,6.12
2023-05-08T20:52:00.504Z,7.08
2023-05-08T20:54:37.291Z,6.97
2023-05-08T20:57:14.475Z,6.80
2023-05-08T20:59:47.900Z,7.17
2023-05-08T21:02:21.105Z,6.83
2023-05-08T21:04:54.332Z,9.70
2023-05-08T21:07:27.805Z,8.08
2023-05-08T21:10:00.948Z,8.15
2023-05-08T21:12:34.708Z,7.67
2023-05-08T21:15:10.384Z,8.13
2023-05-08T21:20:35.575Z,7.62
2023-05-08T21:23:08.687Z,7.83
2023-05-08T21:25:41.694Z,7.15
2023-05-08T21:28:15.178Z,7.05
2023-05-08T21:30:48.716Z,7.05
2023-05-08T21:33:21.957Z,7.12
2023-05-08T21:36:13.576Z,8.83
2023-05-08T21:38:46.905Z,9.23
2023-05-08T21:41:20.074Z,8.83
2023-05-08T21:43:53.354Z,7.90
2023-05-08T21:46:26.802Z,6.97
2023-05-08T21:49:03.203Z,8.63
2023-05-08T21:51:36.357Z,7.85
2023-05-08T21:54:10.266Z,9.55
2023-05-08T21:56:43.321Z,8.55
2023-05-08T21:59:16.307Z,7.72
2023-05-08T22:01:49.542Z,7.47
2023-05-08T22:04:28.065Z,7.62
2023-05-08T22:07:04.220Z,8.38
2023-05-08T22:09:37.352Z,7.97
2023-05-08T22:12:11.219Z,7.28
2023-05-08T22:14:44.461Z,7.10
2023-05-08T22:17:17.606Z,6.80
2023-05-08T22:19:50.803Z,5.97
2023-05-08T22:22:23.815Z,6.70
2023-05-08T22:24:57.620Z,6.20
2023-05-08T22:27:30.701Z,6.40
2023-05-08T22:30:03.829Z,7.72
2023-05-08T22:32:37.387Z,6.80
2023-05-08T22:35:11.654Z,6.47
2023-05-08T22:37:46.756Z,7.00
2023-05-08T22:40:21.846Z,6.87
2023-05-08T22:42:58.427Z,7.55
2023-05-08T22:45:31.820Z,7.15
2023-05-08T22:48:06.671Z,7.10
2023-05-08T22:50:39.956Z,6.83
2023-05-08T22:53:13.390Z,6.97
2023-05-08T22:55:46.725Z,7.78
2023-05-08T22:58:20.103Z,6.78
2023-05-08T23:00:53.360Z,6.50
2023-05-08T23:03:28.422Z,6.42
2023-05-08T23:06:01.870Z,8.05
2023-05-08T23:08:35.165Z,6.30
2023-05-08T23:11:08.520Z,8.08
2023-05-08T23:13:41.950Z,6.90
2023-05-08T23:16:15.275Z,6.62
2023-05-08T23:18:48.652Z,7.15
2023-05-08T23:21:21.936Z,7.15
2023-05-08T23:23:55.393Z,7.37
2023-05-08T23:26:29.026Z,7.28
2023-05-08T23:29:02.405Z,7.08
2023-05-08T23:31:35.828Z,6.65
2023-05-08T23:34:12.759Z,7.80
2023-05-08T23:36:46.371Z,7.70
2023-05-08T23:39:19.712Z,7.85
2023-05-08T23:41:53.232Z,7.78
2023-05-08T23:44:29.871Z,8.00
2023-05-08T23:47:03.174Z,7.20
2023-05-08T23:49:37.723Z,8.75
2023-05-08T23:52:10.926Z,8.10
2023-05-08T23:54:44.382Z,8.35
2023-05-08T23:57:17.623Z,8.03
2023-05-08T23:59:50.724Z,8.18
